createdAt,value
2022-11-29T00:02:00.703Z,3.29
2022-11-29T00:04:29.682Z,3.26
2022-11-29T00:06:58.452Z,3.34
2022-11-29T00:09:28.284Z,3.20
2022-11-29T00:12:15.447Z,3.05
2022-11-29T00:14:44.477Z,3.08
2022-11-29T00:17:13.656Z,2.74
2022-11-29T00:19:42.514Z,2.85
2022-11-29T00:22:11.321Z,3.00
2022-11-29T00:24:40.124Z,2.93
2022-11-29T00:27:09.011Z,2.94
2022-11-29T00:29:37.812Z,2.86
2022-11-29T00:32:06.579Z,2.86
2022-11-29T00:34:35.818Z,2.83
2022-11-29T00:37:05.281Z,2.75
2022-11-29T00:39:34.183Z,2.55
2022-11-29T00:42:02.947Z,2.54
2022-11-29T00:44:33.251Z,2.64
2022-11-29T00:47:02.155Z,2.48
2022-11-29T00:49:30.925Z,2.47
2022-11-29T00:52:00.640Z,2.48
2022-11-29T00:54:29.643Z,2.23
2022-11-29T00:56:58.622Z,2.19
2022-11-29T00:59:27.377Z,2.30
2022-11-29T01:01:56.366Z,2.27
2022-11-29T01:04:25.835Z,2.21
2022-11-29T01:06:54.753Z,2.18
2022-11-29T01:09:26.429Z,2.14
2022-11-29T01:11:55.304Z,2.07
2022-11-29T01:14:24.306Z,2.09
2022-11-29T01:16:53.795Z,2.08
2022-11-29T01:19:22.580Z,2.00
2022-11-29T01:21:51.392Z,1.96
2022-11-29T01:24:20.148Z,1.89
2022-11-29T01:26:49.139Z,1.82
2022-11-29T01:29:18.006Z,1.78
2022-11-29T01:31:47.227Z,1.74
2022-11-29T01:34:16.133Z,1.69
2022-11-29T01:36:45.012Z,1.59
2022-11-29T01:39:14.380Z,1.53
2022-11-29T01:41:43.211Z,1.51
2022-11-29T01:44:14.627Z,1.45
2022-11-29T01:46:57.125Z,1.50
2022-11-29T01:49:36.332Z,1.47
2022-11-29T01:52:10.893Z,1.54
2022-11-29T01:54:43.782Z,1.56
2022-11-29T01:57:13.859Z,1.54
2022-11-29T01:59:50.926Z,1.54
2022-11-29T02:02:31.989Z,1.48
2022-11-29T02:05:03.650Z,1.54
2022-11-29T02:07:33.148Z,1.47
2022-11-29T02:10:05.909Z,1.46
2022-11-29T02:12:45.493Z,1.42
2022-11-29T02:15:49.838Z,1.51
2022-11-29T02:19:06.325Z,1.39
2022-11-29T02:22:19.580Z,1.49
2022-11-29T02:25:15.907Z,1.51
2022-11-29T02:27:59.636Z,1.52
2022-11-29T02:31:05.857Z,1.44
2022-11-29T02:34:05.702Z,1.43
2022-11-29T02:37:00.391Z,1.38
2022-11-29T02:39:40.534Z,1.36
2022-11-29T02:42:12.518Z,1.30
2022-11-29T02:44:41.596Z,1.23
2022-11-29T02:47:27.072Z,1.19
2022-11-29T02:50:20.274Z,1.13
2022-11-29T02:53:07.264Z,1.04
2022-11-29T02:55:52.462Z,1.01
2022-11-29T02:58:39.477Z,0.92
2022-11-29T03:01:26.827Z,0.91
2022-11-29T03:04:34.152Z,0.89
2022-11-29T03:07:28.141Z,0.84
2022-11-29T03:10:06.405Z,0.83
2022-11-29T03:12:42.665Z,0.84
2022-11-29T03:15:37.656Z,0.80
2022-11-29T03:18:46.267Z,0.69
2022-11-29T03:21:17.824Z,0.64
2022-11-29T03:23:57.489Z,0.55
2022-11-29T03:26:52.546Z,0.49
2022-11-29T03:29:28.321Z,0.43
2022-11-29T03:32:10.926Z,0.40
2022-11-29T03:34:56.856Z,0.36
2022-11-29T03:38:07.156Z,0.33
2022-11-29T03:41:11.591Z,0.25
2022-11-29T03:44:51.806Z,0.18
2022-11-29T03:48:11.406Z,0.19
2022-11-29T03:51:20.433Z,0.10
2022-11-29T03:54:52.628Z,0.01
2022-11-29T03:57:58.863Z,0.04
2022-11-29T04:01:12.437Z,-0.08
2022-11-29T04:04:36.911Z,-0.14
2022-11-29T04:07:35.930Z,-0.15
2022-11-29T04:10:23.526Z,-0.11
2022-11-29T04:13:41.046Z,-0.10
2022-11-29T04:20:35.021Z,-0.25
2022-11-29T04:27:20.225Z,-0.28
2022-11-29T04:30:17.079Z,-0.30
2022-11-29T04:33:21.371Z,-0.32
2022-11-29T04:36:24.154Z,-0.28
2022-11-29T04:39:07.382Z,-0.30
2022-11-29T04:42:27.918Z,-0.33
2022-11-29T04:45:40.630Z,-0.34
2022-11-29T04:48:44.954Z,-0.38
2022-11-29T04:51:24.843Z,-0.41
2022-11-29T04:54:10.114Z,-0.45
2022-11-29T04:56:51.942Z,-0.50
2022-11-29T04:59:50.284Z,-0.54
2022-11-29T05:02:23.747Z,-0.57
2022-11-29T05:05:28.107Z,-0.54
2022-11-29T05:08:20.414Z,-0.60
2022-11-29T05:10:56.530Z,-0.59
2022-11-29T05:14:18.995Z,-0.57
2022-11-29T05:17:03.565Z,-0.60
2022-11-29T05:19:38.751Z,-0.64
2022-11-29T05:22:37.014Z,-0.66
2022-11-29T05:25:20.423Z,-0.67
2022-11-29T05:27:57.761Z,-0.61
2022-11-29T05:30:41.557Z,-0.57
2022-11-29T05:33:19.269Z,-0.61
2022-11-29T05:36:00.126Z,-0.62
2022-11-29T05:38:53.330Z,-0.65
2022-11-29T05:41:40.339Z,-0.68
2022-11-29T05:44:14.964Z,-0.70
2022-11-29T05:47:00.740Z,-0.72
2022-11-29T05:49:53.881Z,-0.78
2022-11-29T05:52:58.349Z,-0.78
2022-11-29T05:55:43.971Z,-0.84
2022-11-29T05:58:37.304Z,-0.89
2022-11-29T06:01:54.177Z,-0.90
2022-11-29T06:04:38.144Z,-1.06
2022-11-29T06:07:21.722Z,-1.08
2022-11-29T06:10:02.353Z,-0.86
2022-11-29T06:12:36.587Z,-0.93
2022-11-29T06:15:24.222Z,-0.95
2022-11-29T06:18:24.406Z,-1.02
2022-11-29T06:21:11.996Z,-1.70
2022-11-29T06:23:55.833Z,-1.17
2022-11-29T06:26:52.875Z,-1.01
2022-11-29T06:29:25.471Z,-1.05
2022-11-29T06:32:42.763Z,-1.10
2022-11-29T06:35:30.169Z,-1.09
2022-11-29T06:38:03.229Z,-1.27
2022-11-29T06:40:32.395Z,-0.94
2022-11-29T06:43:01.353Z,-0.91
2022-11-29T06:45:30.498Z,-0.92
2022-11-29T06:48:07.951Z,-0.93
2022-11-29T06:50:58.378Z,-0.81
2022-11-29T06:54:00.461Z,-1.01
2022-11-29T06:57:07.401Z,-0.68
2022-11-29T06:59:58.205Z,-0.67
2022-11-29T07:02:57.930Z,-0.70
2022-11-29T07:05:32.929Z,-0.57
2022-11-29T07:08:11.222Z,-0.60
2022-11-29T07:10:42.043Z,-0.65
2022-11-29T07:13:14.823Z,-0.93
2022-11-29T07:16:12.691Z,-1.12
2022-11-29T07:18:46.002Z,-1.02
2022-11-29T07:21:22.800Z,-0.74
2022-11-29T07:23:54.283Z,-0.71
2022-11-29T07:26:58.042Z,-0.71
2022-11-29T07:29:28.305Z,-0.68
2022-11-29T07:32:18.251Z,-0.73
2022-11-29T07:34:55.785Z,-0.61
2022-11-29T07:37:35.428Z,-0.57
2022-11-29T07:40:26.322Z,-0.57
2022-11-29T07:43:32.356Z,-0.52
2022-11-29T07:46:01.691Z,-0.47
2022-11-29T07:48:30.486Z,-0.50
2022-11-29T07:50:59.456Z,-0.57
2022-11-29T07:53:29.681Z,-0.67
2022-11-29T07:55:59.462Z,-0.94
2022-11-29T07:58:28.410Z,-0.79
2022-11-29T08:00:57.198Z,-0.65
2022-11-29T08:03:26.116Z,-0.50
2022-11-29T08:05:54.919Z,-0.48
2022-11-29T08:08:23.787Z,-0.49
2022-11-29T08:10:53.106Z,-0.29
2022-11-29T08:13:22.438Z,-0.27
2022-11-29T08:15:51.284Z,-0.26
2022-11-29T08:18:20.269Z,-0.24
2022-11-29T08:20:49.052Z,-0.24
2022-11-29T08:23:17.901Z,-0.27
2022-11-29T08:25:46.684Z,-0.31
2022-11-29T08:28:15.710Z,-0.37
2022-11-29T08:30:44.499Z,-0.27
2022-11-29T08:33:13.281Z,-0.24
2022-11-29T08:35:42.947Z,-0.33
2022-11-29T08:38:11.892Z,-0.33
2022-11-29T08:40:40.640Z,-0.34
2022-11-29T08:43:09.405Z,-0.17
2022-11-29T08:45:38.263Z,-0.23
2022-11-29T08:48:07.565Z,-0.33
2022-11-29T08:50:36.325Z,-0.38
2022-11-29T08:53:23.573Z,-0.46
2022-11-29T08:55:52.052Z,-0.28
2022-11-29T08:58:22.274Z,-0.28
2022-11-29T09:00:51.259Z,-0.28
2022-11-29T09:03:38.709Z,-0.26
2022-11-29T09:06:16.629Z,-0.26
2022-11-29T09:08:46.543Z,-0.23
2022-11-29T09:11:20.481Z,-0.14
2022-11-29T09:13:52.617Z,-0.06
2022-11-29T09:16:33.923Z,-0.08
2022-11-29T09:19:18.996Z,-0.10
2022-11-29T09:22:04.889Z,-0.12
2022-11-29T09:24:35.128Z,-0.18
2022-11-29T09:27:03.989Z,-0.10
2022-11-29T09:29:32.770Z,-0.08
2022-11-29T09:32:01.598Z,-0.09
2022-11-29T09:34:30.465Z,-0.13
2022-11-29T09:36:59.859Z,-0.15
2022-11-29T09:39:28.654Z,-0.16
2022-11-29T09:42:07.287Z,-0.14
2022-11-29T09:45:13.343Z,-0.04
2022-11-29T09:48:00.178Z,-0.03
2022-11-29T09:50:37.954Z,-0.06
2022-11-29T09:53:26.788Z,-0.06
2022-11-29T09:56:04.578Z,-0.05
2022-11-29T09:58:44.235Z,-0.04
2022-11-29T10:01:21.770Z,-0.08
2022-11-29T10:04:01.199Z,-0.05
2022-11-29T10:06:41.353Z,-0.03
2022-11-29T10:09:21.177Z,-0.05
2022-11-29T10:11:59.209Z,-0.06
2022-11-29T10:14:35.528Z,-0.04
2022-11-29T10:17:15.223Z,-0.06
2022-11-29T10:19:50.849Z,-0.02
2022-11-29T10:22:37.220Z,-0.01
2022-11-29T10:25:11.086Z,0.01
2022-11-29T10:27:41.575Z,0.01
2022-11-29T10:30:18.310Z,-0.01
2022-11-29T10:32:51.834Z,-0.11
2022-11-29T10:35:22.037Z,-0.13
2022-11-29T10:38:29.127Z,-0.14
2022-11-29T10:40:51.109Z,-0.14
2022-11-29T10:43:20.047Z,-0.11
2022-11-29T10:45:54.171Z,-0.06
2022-11-29T10:48:35.244Z,-0.01
2022-11-29T10:51:04.064Z,-0.04
2022-11-29T10:53:37.871Z,-0.01
2022-11-29T10:56:23.148Z,-0.04
2022-11-29T10:59:05.925Z,-0.03
2022-11-29T11:01:42.024Z,-0.13
2022-11-29T11:04:23.330Z,-0.13
2022-11-29T11:06:57.126Z,-0.14
2022-11-29T11:09:51.964Z,-0.16
2022-11-29T11:12:25.135Z,-0.18
2022-11-29T11:15:26.250Z,-0.27
2022-11-29T11:18:05.799Z,-0.29
2022-11-29T11:20:43.276Z,-0.24
2022-11-29T11:23:42.772Z,-0.22
2022-11-29T11:26:15.274Z,-0.61
2022-11-29T11:28:52.414Z,-0.70
2022-11-29T11:31:57.967Z,-0.57
2022-11-29T11:34:34.880Z,-0.52
2022-11-29T11:37:15.952Z,-0.36
2022-11-29T11:39:47.162Z,-0.28
2022-11-29T11:42:37.000Z,-0.22
2022-11-29T11:45:10.713Z,-0.25
2022-11-29T11:48:12.451Z,-0.36
2022-11-29T11:50:50.789Z,-0.30
2022-11-29T11:53:30.694Z,-0.30
2022-11-29T11:56:07.312Z,-0.42
2022-11-29T11:58:59.175Z,-0.27
2022-11-29T12:01:39.631Z,-0.41
2022-11-29T12:04:14.338Z,-0.65
2022-11-29T12:06:53.048Z,-0.65
2022-11-29T12:09:51.696Z,-0.42
2022-11-29T12:12:43.007Z,-0.43
2022-11-29T12:15:23.151Z,-0.27
2022-11-29T12:18:16.683Z,-0.44
2022-11-29T12:21:04.271Z,-0.52
2022-11-29T12:23:46.842Z,-0.37
2022-11-29T12:26:55.844Z,-0.38
2022-11-29T12:29:19.282Z,-0.54
2022-11-29T12:32:25.694Z,-0.28
2022-11-29T12:35:06.186Z,-0.37
2022-11-29T12:38:08.728Z,-0.46
2022-11-29T12:40:40.728Z,-0.27
2022-11-29T12:43:24.711Z,-0.32
2022-11-29T12:46:28.632Z,-0.32
2022-11-29T12:49:09.615Z,-0.28
2022-11-29T12:51:56.367Z,-0.51
2022-11-29T12:54:43.514Z,-0.40
2022-11-29T12:57:35.723Z,-0.19
2022-11-29T13:00:08.433Z,-0.30
2022-11-29T13:02:55.750Z,-0.14
2022-11-29T13:05:34.511Z,-0.20
2022-11-29T13:08:14.999Z,-0.14
2022-11-29T13:11:02.120Z,0.03
2022-11-29T13:13:36.842Z,-0.14
2022-11-29T13:16:09.333Z,-0.07
2022-11-29T13:18:45.862Z,-0.19
2022-11-29T13:21:21.225Z,-0.30
2022-11-29T13:24:09.033Z,-0.27
2022-11-29T13:26:41.557Z,-0.27
2022-11-29T13:29:19.246Z,-0.13
2022-11-29T13:31:49.166Z,-0.05
2022-11-29T13:34:33.931Z,-0.20
2022-11-29T13:37:11.974Z,-0.05
2022-11-29T13:39:56.988Z,-0.14
2022-11-29T13:42:33.638Z,-0.19
2022-11-29T13:45:17.918Z,-0.40
2022-11-29T13:47:56.085Z,-0.30
2022-11-29T13:50:41.094Z,-0.21
2022-11-29T13:53:15.485Z,-0.54
2022-11-29T13:56:02.672Z,-0.43
2022-11-29T13:58:40.086Z,0.03
2022-11-29T14:01:12.856Z,-0.44
2022-11-29T14:04:08.621Z,-0.20
2022-11-29T14:06:39.774Z,-0.36
2022-11-29T14:09:28.026Z,-0.14
2022-11-29T14:12:05.757Z,-0.25
2022-11-29T14:15:00.952Z,-0.07
2022-11-29T14:17:48.631Z,-0.13
2022-11-29T14:20:27.243Z,-0.53
2022-11-29T14:23:08.463Z,-0.43
2022-11-29T14:25:51.661Z,-0.28
2022-11-29T14:28:24.428Z,-0.26
2022-11-29T14:31:02.207Z,-0.46
2022-11-29T14:33:40.397Z,-0.52
2022-11-29T14:36:38.882Z,-0.26
2022-11-29T14:39:31.840Z,-0.30
2022-11-29T14:42:25.675Z,-0.24
2022-11-29T14:45:02.177Z,-0.16
2022-11-29T14:47:32.260Z,-0.20
2022-11-29T14:50:04.966Z,-0.14
2022-11-29T14:52:40.801Z,-0.28
2022-11-29T14:55:31.475Z,-0.30
2022-11-29T14:58:06.839Z,-0.21
2022-11-29T15:00:54.098Z,-0.08
2022-11-29T15:03:39.830Z,0.02
2022-11-29T15:06:16.708Z,0.06
2022-11-29T15:08:56.964Z,0.04
2022-11-29T15:11:38.158Z,-0.20
2022-11-29T15:14:17.045Z,-0.29
2022-11-29T15:16:59.134Z,0.01
2022-11-29T15:19:53.581Z,-0.20
2022-11-29T15:22:45.925Z,-0.20
2022-11-29T15:25:24.999Z,0.10
2022-11-29T15:28:00.096Z,0.03
2022-11-29T15:30:43.210Z,0.06
2022-11-29T15:33:40.832Z,0.19
2022-11-29T15:36:12.269Z,0.11
2022-11-29T15:38:52.360Z,0.24
2022-11-29T15:41:28.222Z,0.38
2022-11-29T15:44:06.359Z,0.41
2022-11-29T15:46:36.543Z,0.39
2022-11-29T15:49:23.756Z,0.29
2022-11-29T15:51:59.638Z,0.39
2022-11-29T15:54:34.187Z,0.45
2022-11-29T15:57:16.948Z,0.21
2022-11-29T16:00:02.016Z,0.45
2022-11-29T16:02:41.357Z,0.52
2022-11-29T16:05:23.037Z,0.41
2022-11-29T16:07:59.472Z,0.61
2022-11-29T16:10:54.049Z,0.74
2022-11-29T16:13:38.501Z,0.55
2022-11-29T16:16:16.727Z,0.53
2022-11-29T16:18:47.816Z,0.82
2022-11-29T16:21:25.227Z,0.70
2022-11-29T16:23:55.028Z,0.68
2022-11-29T16:26:38.404Z,0.38
2022-11-29T16:29:29.732Z,-0.02
2022-11-29T16:31:59.074Z,-0.04
2022-11-29T16:34:34.698Z,-0.61
2022-11-29T16:37:24.520Z,-0.35
2022-11-29T16:40:02.763Z,-0.11
2022-11-29T16:42:34.848Z,-0.64
2022-11-29T16:45:35.735Z,-0.99
2022-11-29T16:48:28.821Z,-0.99
2022-11-29T16:51:15.984Z,-0.80
2022-11-29T16:53:49.276Z,-1.10
2022-11-29T16:56:24.361Z,-0.59
2022-11-29T16:59:25.326Z,-0.85
2022-11-29T17:01:51.917Z,-0.19
2022-11-29T17:04:24.445Z,-0.06
2022-11-29T17:06:57.838Z,-0.03
2022-11-29T17:09:33.342Z,-0.20
2022-11-29T17:12:03.549Z,0.03
2022-11-29T17:14:34.103Z,-0.13
2022-11-29T17:17:03.159Z,-0.15
2022-11-29T17:19:32.461Z,0.03
2022-11-29T17:22:01.474Z,0.02
2022-11-29T17:24:30.230Z,0.02
2022-11-29T17:26:59.157Z,-0.03
2022-11-29T17:29:28.111Z,-0.44
2022-11-29T17:31:57.219Z,-0.22
2022-11-29T17:34:26.111Z,-0.02
2022-11-29T17:36:55.014Z,-0.32
2022-11-29T17:39:23.904Z,-0.32
2022-11-29T17:41:52.747Z,-0.01
2022-11-29T17:44:21.600Z,-0.12
2022-11-29T17:46:50.679Z,-0.04
2022-11-29T17:49:22.233Z,-0.08
2022-11-29T17:51:53.039Z,0.05
2022-11-29T17:54:23.470Z,-0.13
2022-11-29T17:56:52.630Z,0.12
2022-11-29T17:59:21.471Z,0.05
2022-11-29T18:01:50.669Z,0.25
2022-11-29T18:04:19.616Z,0.13
2022-11-29T18:06:50.572Z,0.28
2022-11-29T18:09:20.458Z,0.32
2022-11-29T18:11:50.577Z,0.37
2022-11-29T18:14:24.534Z,0.19
2022-11-29T18:16:53.502Z,0.36
2022-11-29T18:19:23.659Z,0.16
2022-11-29T18:21:53.170Z,0.30
2022-11-29T18:24:23.265Z,0.20
2022-11-29T18:26:52.186Z,0.35
2022-11-29T18:29:21.493Z,0.50
2022-11-29T18:31:50.394Z,0.32
2022-11-29T18:34:19.138Z,0.48
2022-11-29T18:36:49.525Z,0.46
2022-11-29T18:39:20.310Z,0.32
2022-11-29T18:41:50.820Z,0.58
2022-11-29T18:44:22.354Z,0.41
2022-11-29T18:46:51.175Z,0.35
2022-11-29T18:49:20.001Z,0.65
2022-11-29T18:51:50.353Z,0.44
2022-11-29T18:54:20.179Z,0.24
2022-11-29T18:56:51.809Z,0.63
2022-11-29T18:59:20.683Z,0.47
2022-11-29T19:01:50.113Z,0.40
2022-11-29T19:04:21.624Z,0.43
2022-11-29T19:06:50.811Z,0.54
2022-11-29T19:09:22.102Z,0.61
2022-11-29T19:11:51.976Z,0.34
2022-11-29T19:14:21.031Z,0.44
2022-11-29T19:16:50.689Z,0.56
2022-11-29T19:19:20.154Z,0.31
2022-11-29T19:21:49.456Z,0.23
2022-11-29T19:24:19.731Z,0.08
2022-11-29T19:26:51.454Z,-0.01
2022-11-29T19:29:21.057Z,-0.08
2022-11-29T19:31:51.153Z,0.04
2022-11-29T19:34:20.002Z,0.31
2022-11-29T19:36:49.065Z,-0.09
2022-11-29T19:39:18.501Z,0.28
2022-11-29T19:41:48.828Z,0.46
2022-11-29T19:44:22.096Z,0.13
2022-11-29T19:46:54.148Z,0.04
2022-11-29T19:49:23.975Z,0.18
2022-11-29T19:51:52.832Z,0.27
2022-11-29T19:54:21.638Z,0.17
2022-11-29T19:56:50.472Z,0.29
2022-11-29T19:59:19.728Z,0.21
2022-11-29T20:01:48.607Z,0.30
2022-11-29T20:04:17.602Z,0.19
2022-11-29T20:06:47.481Z,0.19
2022-11-29T20:09:17.331Z,0.42
2022-11-29T20:11:46.165Z,0.35
2022-11-29T20:14:15.540Z,0.48
2022-11-29T20:16:45.833Z,0.33
2022-11-29T20:19:17.975Z,0.38
2022-11-29T20:21:49.657Z,0.56
2022-11-29T20:24:20.231Z,0.54
2022-11-29T20:26:50.165Z,0.39
2022-11-29T20:29:20.072Z,0.48
2022-11-29T20:31:50.996Z,0.49
2022-11-29T20:34:24.915Z,0.64
2022-11-29T20:37:19.638Z,0.25
2022-11-29T20:40:03.049Z,0.48
2022-11-29T20:42:57.928Z,0.69
2022-11-29T20:45:27.451Z,0.68
2022-11-29T20:48:16.031Z,0.54
2022-11-29T20:50:54.780Z,0.45
2022-11-29T20:53:40.299Z,0.51
2022-11-29T20:56:10.740Z,0.23
2022-11-29T20:58:40.188Z,0.29
2022-11-29T21:01:09.041Z,0.13
2022-11-29T21:03:38.338Z,0.40
2022-11-29T21:06:07.734Z,0.20
2022-11-29T21:08:37.458Z,0.56
2022-11-29T21:11:11.033Z,0.30
2022-11-29T21:13:40.458Z,0.43
2022-11-29T21:16:11.550Z,0.44
2022-11-29T21:18:41.791Z,0.48
2022-11-29T21:21:16.461Z,0.50
2022-11-29T21:24:13.365Z,0.60
2022-11-29T21:26:50.919Z,0.71
2022-11-29T21:29:24.317Z,0.24
2022-11-29T21:31:54.919Z,0.38
2022-11-29T21:34:23.955Z,0.63
2022-11-29T21:37:00.728Z,0.37
2022-11-29T21:39:35.410Z,0.43
2022-11-29T21:42:04.301Z,0.25
2022-11-29T21:44:32.991Z,0.50
2022-11-29T21:47:01.771Z,0.24
2022-11-29T21:49:30.624Z,0.10
2022-11-29T21:52:01.847Z,0.28
2022-11-29T21:54:31.122Z,0.49
2022-11-29T21:57:00.748Z,0.56
2022-11-29T21:59:29.685Z,0.43
2022-11-29T22:01:58.668Z,0.53
2022-11-29T22:04:27.813Z,0.61
2022-11-29T22:06:56.735Z,0.64
2022-11-29T22:09:25.564Z,0.67
2022-11-29T22:11:54.807Z,0.73
2022-11-29T22:14:24.580Z,0.35
2022-11-29T22:16:55.714Z,0.46
2022-11-29T22:19:29.880Z,0.51
2022-11-29T22:22:01.194Z,0.57
2022-11-29T22:24:32.530Z,0.49
2022-11-29T22:27:02.511Z,0.31
2022-11-29T22:29:31.590Z,0.47
2022-11-29T22:32:01.938Z,0.26
2022-11-29T22:34:30.936Z,0.48
2022-11-29T22:36:59.751Z,0.50
2022-11-29T22:39:28.777Z,0.52
2022-11-29T22:41:57.521Z,0.52
2022-11-29T22:44:26.403Z,0.36
2022-11-29T22:46:55.391Z,0.50
2022-11-29T22:49:24.372Z,0.52
2022-11-29T22:51:53.191Z,0.30
2022-11-29T22:54:22.304Z,0.38
2022-11-29T22:56:51.148Z,0.60
2022-11-29T22:59:20.119Z,0.32
2022-11-29T23:01:49.138Z,0.15
2022-11-29T23:04:18.262Z,0.44
2022-11-29T23:06:47.738Z,0.21
2022-11-29T23:09:22.094Z,0.43
2022-11-29T23:11:55.060Z,0.30
2022-11-29T23:14:24.637Z,0.29
2022-11-29T23:16:53.676Z,0.34
2022-11-29T23:19:22.636Z,0.22
2022-11-29T23:21:51.811Z,0.20
2022-11-29T23:24:20.736Z,0.27
2022-11-29T23:26:49.754Z,0.19
2022-11-29T23:29:20.772Z,0.25
2022-11-29T23:31:49.846Z,0.36
2022-11-29T23:34:19.033Z,0.35
2022-11-29T23:36:52.575Z,0.41
2022-11-29T23:39:22.348Z,0.41
2022-11-29T23:41:51.221Z,0.44
2022-11-29T23:44:20.081Z,0.36
2022-11-29T23:46:48.933Z,0.41
2022-11-29T23:49:17.821Z,0.20
2022-11-29T23:51:46.622Z,0.25
2022-11-29T23:54:15.552Z,0.14
2022-11-29T23:56:46.028Z,0.42
2022-11-29T23:59:14.866Z,0.14
